sensor_id;sensor_type;location;lat;lon;timestamp;pressure;altitude;pressure_sealevel;temperature;humidity
80321;BME280;69633;47.066;15.450;2023-04-30T00:00:46;97594.50;;;13.24;71.94
80321;BME280;69633;47.066;15.450;2023-04-30T00:03:11;97592.19;;;13.22;71.98
80321;BME280;69633;47.066;15.450;2023-04-30T00:05:37;97593.81;;;13.27;71.86
80321;BME280;69633;47.066;15.450;2023-04-30T00:08:03;97594.22;;;13.13;71.99
80321;BME280;69633;47.066;15.450;2023-04-30T00:10:29;97598.25;;;13.07;72.35
80321;BME280;69633;47.066;15.450;2023-04-30T00:12:55;97597.91;;;13.08;72.32
80321;BME280;69633;47.066;15.450;2023-04-30T00:15:21;97601.81;;;13.11;72.24
80321;BME280;69633;47.066;15.450;2023-04-30T00:17:47;97596.91;;;13.13;71.79
80321;BME280;69633;47.066;15.450;2023-04-30T00:20:12;97607.31;;;13.18;71.50
80321;BME280;69633;47.066;15.450;2023-04-30T00:22:38;97607.31;;;13.18;71.59
80321;BME280;69633;47.066;15.450;2023-04-30T00:25:03;97603.00;;;13.14;71.47
80321;BME280;69633;47.066;15.450;2023-04-30T00:27:29;97604.97;;;13.17;71.38
80321;BME280;69633;47.066;15.450;2023-04-30T00:29:56;97603.53;;;13.19;71.34
80321;BME280;69633;47.066;15.450;2023-04-30T00:32:21;97605.84;;;13.21;71.61
80321;BME280;69633;47.066;15.450;2023-04-30T00:34:47;97609.91;;;13.15;71.85
80321;BME280;69633;47.066;15.450;2023-04-30T00:37:13;97611.88;;;13.18;71.89
80321;BME280;69633;47.066;15.450;2023-04-30T00:39:38;97606.53;;;13.18;71.85
80321;BME280;69633;47.066;15.450;2023-04-30T00:42:03;97609.63;;;13.20;71.79
80321;BME280;69633;47.066;15.450;2023-04-30T00:44:29;97607.41;;;13.22;71.79
80321;BME280;69633;47.066;15.450;2023-04-30T00:46:55;97597.00;;;13.32;71.06
80321;BME280;69633;47.066;15.450;2023-04-30T00:49:21;97595.28;;;13.40;70.98
80321;BME280;69633;47.066;15.450;2023-04-30T00:51:47;97603.28;;;13.40;70.78
80321;BME280;69633;47.066;15.450;2023-04-30T00:54:13;97594.41;;;13.36;70.98
80321;BME280;69633;47.066;15.450;2023-04-30T00:56:38;97589.38;;;13.31;70.83
80321;BME280;69633;47.066;15.450;2023-04-30T00:59:04;97584.03;;;13.31;70.74
80321;BME280;69633;47.066;15.450;2023-04-30T01:01:29;97593.72;;;13.39;70.31
80321;BME280;69633;47.066;15.450;2023-04-30T01:03:55;97599.31;;;13.34;70.66
80321;BME280;69633;47.066;15.450;2023-04-30T01:06:21;97594.69;;;13.31;70.74
80321;BME280;69633;47.066;15.450;2023-04-30T01:08:47;97593.38;;;13.25;70.83
80321;BME280;69633;47.066;15.450;2023-04-30T01:11:38;97590.03;;;13.28;70.60
80321;BME280;69633;47.066;15.450;2023-04-30T01:14:30;97590.81;;;13.28;70.85
80321;BME280;69633;47.066;15.450;2023-04-30T01:17:20;97598.03;;;13.28;70.86
80321;BME280;69633;47.066;15.450;2023-04-30T01:19:47;97600.97;;;13.23;70.87
80321;BME280;69633;47.066;15.450;2023-04-30T01:22:49;97602.75;;;13.19;70.88
80321;BME280;69633;47.066;15.450;2023-04-30T01:25:43;97603.22;;;13.08;71.11
80321;BME280;69633;47.066;15.450;2023-04-30T01:28:17;97610.47;;;13.08;70.70
80321;BME280;69633;47.066;15.450;2023-04-30T01:30:44;97608.91;;;13.07;69.81
80321;BME280;69633;47.066;15.450;2023-04-30T01:33:11;97613.78;;;13.05;69.47
80321;BME280;69633;47.066;15.450;2023-04-30T01:44:23;97617.19;;;12.90;68.60
80321;BME280;69633;47.066;15.450;2023-04-30T01:47:06;97624.00;;;12.87;69.00
80321;BME280;69633;47.066;15.450;2023-04-30T01:49:50;97621.25;;;12.84;68.77
80321;BME280;69633;47.066;15.450;2023-04-30T01:52:34;97618.31;;;12.73;69.04
80321;BME280;69633;47.066;15.450;2023-04-30T01:55:07;97615.88;;;12.68;69.17
80321;BME280;69633;47.066;15.450;2023-04-30T01:57:38;97627.97;;;12.66;68.87
80321;BME280;69633;47.066;15.450;2023-04-30T02:00:07;97627.22;;;12.65;69.32
80321;BME280;69633;47.066;15.450;2023-04-30T02:02:36;97636.66;;;12.63;69.26
80321;BME280;69633;47.066;15.450;2023-04-30T02:05:02;97636.22;;;12.60;69.27
80321;BME280;69633;47.066;15.450;2023-04-30T02:07:42;97638.53;;;12.62;69.76
80321;BME280;69633;47.066;15.450;2023-04-30T02:10:09;97644.28;;;12.64;69.19
80321;BME280;69633;47.066;15.450;2023-04-30T02:12:36;97647.41;;;12.66;69.35
80321;BME280;69633;47.066;15.450;2023-04-30T02:15:03;97638.81;;;12.73;69.24
80321;BME280;69633;47.066;15.450;2023-04-30T02:17:28;97644.34;;;12.80;69.20
80321;BME280;69633;47.066;15.450;2023-04-30T02:19:54;97648.22;;;12.82;69.39
80321;BME280;69633;47.066;15.450;2023-04-30T02:22:20;97635.56;;;12.79;69.46
80321;BME280;69633;47.066;15.450;2023-04-30T02:24:45;97644.78;;;12.82;69.61
80321;BME280;69633;47.066;15.450;2023-04-30T02:27:10;97649.91;;;12.75;70.09
80321;BME280;69633;47.066;15.450;2023-04-30T02:29:36;97651.94;;;12.66;70.16
80321;BME280;69633;47.066;15.450;2023-04-30T02:32:01;97658.63;;;12.59;70.63
80321;BME280;69633;47.066;15.450;2023-04-30T02:34:27;97661.59;;;12.70;70.37
80321;BME280;69633;47.066;15.450;2023-04-30T02:36:52;97660.22;;;12.76;70.20
80321;BME280;69633;47.066;15.450;2023-04-30T02:39:18;97659.34;;;12.72;70.20
80321;BME280;69633;47.066;15.450;2023-04-30T02:41:43;97659.84;;;12.62;71.26
80321;BME280;69633;47.066;15.450;2023-04-30T02:44:10;97660.84;;;12.57;71.36
80321;BME280;69633;47.066;15.450;2023-04-30T02:46:35;97669.59;;;12.70;71.15
80321;BME280;69633;47.066;15.450;2023-04-30T02:49:01;97666.56;;;12.72;71.15
80321;BME280;69633;47.066;15.450;2023-04-30T02:51:26;97664.69;;;12.72;71.27
80321;BME280;69633;47.066;15.450;2023-04-30T02:53:52;97671.75;;;12.80;70.82
80321;BME280;69633;47.066;15.450;2023-04-30T02:56:17;97676.41;;;12.83;71.03
80321;BME280;69633;47.066;15.450;2023-04-30T02:58:43;97670.19;;;12.79;71.34
80321;BME280;69633;47.066;15.450;2023-04-30T03:01:08;97672.66;;;12.72;71.43
80321;BME280;69633;47.066;15.450;2023-04-30T03:03:34;97674.66;;;12.75;71.26
80321;BME280;69633;47.066;15.450;2023-04-30T03:05:59;97676.41;;;12.83;70.93
80321;BME280;69633;47.066;15.450;2023-04-30T03:08:25;97678.78;;;12.73;71.18
80321;BME280;69633;47.066;15.450;2023-04-30T03:10:50;97678.25;;;12.67;71.61
80321;BME280;69633;47.066;15.450;2023-04-30T03:13:16;97685.13;;;12.68;71.40
80321;BME280;69633;47.066;15.450;2023-04-30T03:15:42;97680.66;;;12.72;71.43
80321;BME280;69633;47.066;15.450;2023-04-30T03:18:09;97681.81;;;12.87;70.66
80321;BME280;69633;47.066;15.450;2023-04-30T03:20:34;97693.31;;;13.03;70.17
80321;BME280;69633;47.066;15.450;2023-04-30T03:23:00;97685.56;;;12.98;70.18
80321;BME280;69633;47.066;15.450;2023-04-30T03:25:25;97677.31;;;13.03;70.15
80321;BME280;69633;47.066;15.450;2023-04-30T03:27:51;97686.97;;;13.07;70.11
80321;BME280;69633;47.066;15.450;2023-04-30T03:30:16;97673.66;;;13.07;69.79
80321;BME280;69633;47.066;15.450;2023-04-30T03:32:41;97697.19;;;13.05;69.61
80321;BME280;69633;47.066;15.450;2023-04-30T03:35:07;97695.25;;;12.90;68.73
80321;BME280;69633;47.066;15.450;2023-04-30T03:37:33;97695.59;;;12.89;68.61
80321;BME280;69633;47.066;15.450;2023-04-30T03:39:58;97688.63;;;12.84;68.57
80321;BME280;69633;47.066;15.450;2023-04-30T03:42:24;97688.22;;;12.98;68.72
80321;BME280;69633;47.066;15.450;2023-04-30T03:44:49;97685.41;;;13.06;68.17
80321;BME280;69633;47.066;15.450;2023-04-30T03:47:15;97697.75;;;13.11;67.78
80321;BME280;69633;47.066;15.450;2023-04-30T03:49:40;97693.34;;;12.91;68.83
80321;BME280;69633;47.066;15.450;2023-04-30T03:52:06;97693.75;;;12.77;68.60
80321;BME280;69633;47.066;15.450;2023-04-30T03:54:31;97691.31;;;12.72;69.05
80321;BME280;69633;47.066;15.450;2023-04-30T03:57:00;97694.44;;;12.74;69.85
80321;BME280;69633;47.066;15.450;2023-04-30T03:59:30;97696.53;;;12.69;69.02
80321;BME280;69633;47.066;15.450;2023-04-30T04:01:56;97697.22;;;12.66;68.85
80321;BME280;69633;47.066;15.450;2023-04-30T04:04:21;97703.31;;;12.66;68.69
80321;BME280;69633;47.066;15.450;2023-04-30T04:06:47;97707.41;;;12.64;68.10
80321;BME280;69633;47.066;15.450;2023-04-30T04:09:12;97705.44;;;12.60;68.79
80321;BME280;69633;47.066;15.450;2023-04-30T04:11:38;97717.09;;;12.56;68.40
80321;BME280;69633;47.066;15.450;2023-04-30T04:14:03;97705.13;;;12.62;68.60
80321;BME280;69633;47.066;15.450;2023-04-30T04:16:28;97703.72;;;12.80;68.19
80321;BME280;69633;47.066;15.450;2023-04-30T04:18:54;97709.88;;;12.96;67.14
80321;BME280;69633;47.066;15.450;2023-04-30T04:21:20;97711.69;;;12.92;67.16
80321;BME280;69633;47.066;15.450;2023-04-30T04:23:45;97722.25;;;12.89;67.50
80321;BME280;69633;47.066;15.450;2023-04-30T04:26:11;97721.09;;;12.90;68.12
80321;BME280;69633;47.066;15.450;2023-04-30T04:28:36;97725.22;;;12.87;68.55
80321;BME280;69633;47.066;15.450;2023-04-30T04:31:03;97725.31;;;12.91;68.30
80321;BME280;69633;47.066;15.450;2023-04-30T04:33:29;97736.97;;;12.98;67.97
80321;BME280;69633;47.066;15.450;2023-04-30T04:35:55;97729.41;;;13.00;68.00
80321;BME280;69633;47.066;15.450;2023-04-30T04:38:21;97728.44;;;13.21;68.11
80321;BME280;69633;47.066;15.450;2023-04-30T04:40:53;97737.38;;;13.13;68.40
80321;BME280;69633;47.066;15.450;2023-04-30T04:43:19;97734.47;;;13.18;68.14
80321;BME280;69633;47.066;15.450;2023-04-30T04:45:44;97740.72;;;13.37;67.78
80321;BME280;69633;47.066;15.450;2023-04-30T04:48:11;97743.97;;;13.31;67.10
80321;BME280;69633;47.066;15.450;2023-04-30T04:50:36;97749.31;;;13.31;67.12
80321;BME280;69633;47.066;15.450;2023-04-30T04:53:02;97739.44;;;13.47;66.62
80321;BME280;69633;47.066;15.450;2023-04-30T04:55:27;97747.59;;;13.54;66.75
80321;BME280;69633;47.066;15.450;2023-04-30T04:57:53;97748.94;;;13.60;66.94
80321;BME280;69633;47.066;15.450;2023-04-30T05:00:18;97757.47;;;13.81;66.40
80321;BME280;69633;47.066;15.450;2023-04-30T05:02:46;97747.91;;;13.96;66.10
80321;BME280;69633;47.066;15.450;2023-04-30T05:05:11;97751.28;;;14.09;65.55
80321;BME280;69633;47.066;15.450;2023-04-30T05:07:37;97745.31;;;14.15;65.06
80321;BME280;69633;47.066;15.450;2023-04-30T05:10:03;97754.78;;;13.97;65.56
80321;BME280;69633;47.066;15.450;2023-04-30T05:12:28;97756.34;;;13.82;65.78
80321;BME280;69633;47.066;15.450;2023-04-30T05:14:54;97747.22;;;13.83;65.66
80321;BME280;69633;47.066;15.450;2023-04-30T05:17:19;97754.19;;;14.03;65.32
80321;BME280;69633;47.066;15.450;2023-04-30T05:19:45;97754.88;;;14.16;64.76
80321;BME280;69633;47.066;15.450;2023-04-30T05:22:12;97758.38;;;14.36;64.46
80321;BME280;69633;47.066;15.450;2023-04-30T05:24:37;97759.84;;;14.49;63.90
80321;BME280;69633;47.066;15.450;2023-04-30T05:27:02;97752.28;;;14.70;63.18
80321;BME280;69633;47.066;15.450;2023-04-30T05:29:29;97747.19;;;14.81;63.70
80321;BME280;69633;47.066;15.450;2023-04-30T05:31:55;97754.00;;;14.97;64.15
80321;BME280;69633;47.066;15.450;2023-04-30T05:34:21;97764.13;;;14.88;64.98
80321;BME280;69633;47.066;15.450;2023-04-30T05:36:46;97764.97;;;14.73;64.56
80321;BME280;69633;47.066;15.450;2023-04-30T05:39:12;97769.69;;;14.80;65.33
80321;BME280;69633;47.066;15.450;2023-04-30T05:41:38;97769.47;;;14.88;64.57
80321;BME280;69633;47.066;15.450;2023-04-30T05:44:04;97771.81;;;14.90;65.41
80321;BME280;69633;47.066;15.450;2023-04-30T05:46:29;97770.38;;;14.77;65.40
80321;BME280;69633;47.066;15.450;2023-04-30T05:48:55;97778.41;;;14.77;65.53
80321;BME280;69633;47.066;15.450;2023-04-30T05:51:20;97774.31;;;14.83;65.47
80321;BME280;69633;47.066;15.450;2023-04-30T05:53:46;97781.06;;;14.77;65.52
80321;BME280;69633;47.066;15.450;2023-04-30T05:56:11;97766.97;;;14.61;65.39
80321;BME280;69633;47.066;15.450;2023-04-30T05:58:38;97772.69;;;14.43;66.05
80321;BME280;69633;47.066;15.450;2023-04-30T06:01:03;97770.78;;;14.44;66.18
80321;BME280;69633;47.066;15.450;2023-04-30T06:03:30;97772.25;;;14.57;65.95
80321;BME280;69633;47.066;15.450;2023-04-30T06:05:55;97770.84;;;14.63;65.37
80321;BME280;69633;47.066;15.450;2023-04-30T06:08:21;97775.31;;;14.59;65.50
80321;BME280;69633;47.066;15.450;2023-04-30T06:10:47;97781.00;;;14.73;65.72
80321;BME280;69633;47.066;15.450;2023-04-30T06:13:15;97778.22;;;14.70;65.89
80321;BME280;69633;47.066;15.450;2023-04-30T06:15:41;97776.44;;;14.93;65.79
80321;BME280;69633;47.066;15.450;2023-04-30T06:18:15;97774.06;;;15.07;65.46
80321;BME280;69633;47.066;15.450;2023-04-30T06:20:49;97781.88;;;15.16;65.40
80321;BME280;69633;47.066;15.450;2023-04-30T06:23:25;97778.47;;;15.19;65.83
80321;BME280;69633;47.066;15.450;2023-04-30T06:25:57;97778.47;;;15.38;65.21
80321;BME280;69633;47.066;15.450;2023-04-30T06:28:27;97782.00;;;15.42;64.85
80321;BME280;69633;47.066;15.450;2023-04-30T06:30:53;97786.22;;;15.43;64.89
80321;BME280;69633;47.066;15.450;2023-04-30T06:33:19;97790.81;;;15.42;65.23
80321;BME280;69633;47.066;15.450;2023-04-30T06:35:45;97797.88;;;15.51;65.05
80321;BME280;69633;47.066;15.450;2023-04-30T06:38:10;97797.47;;;16.62;61.98
80321;BME280;69633;47.066;15.450;2023-04-30T06:40:36;97802.78;;;17.15;59.75
80321;BME280;69633;47.066;15.450;2023-04-30T06:43:01;97805.19;;;16.67;61.00
80321;BME280;69633;47.066;15.450;2023-04-30T06:45:26;97797.56;;;16.20;62.43
80321;BME280;69633;47.066;15.450;2023-04-30T06:47:53;97801.97;;;16.09;62.71
80321;BME280;69633;47.066;15.450;2023-04-30T06:50:18;97803.56;;;16.14;62.89
80321;BME280;69633;47.066;15.450;2023-04-30T06:52:45;97812.09;;;16.19;62.92
80321;BME280;69633;47.066;15.450;2023-04-30T06:55:10;97812.38;;;16.37;62.07
80321;BME280;69633;47.066;15.450;2023-04-30T06:57:36;97812.41;;;16.63;61.59
80321;BME280;69633;47.066;15.450;2023-04-30T07:00:04;97819.63;;;16.59;61.69
80321;BME280;69633;47.066;15.450;2023-04-30T07:02:29;97813.19;;;16.41;62.19
80321;BME280;69633;47.066;15.450;2023-04-30T07:04:55;97809.22;;;16.31;62.27
80321;BME280;69633;47.066;15.450;2023-04-30T07:07:20;97801.88;;;16.51;61.96
80321;BME280;69633;47.066;15.450;2023-04-30T07:09:47;97800.16;;;16.39;62.10
80321;BME280;69633;47.066;15.450;2023-04-30T07:12:12;97799.09;;;15.99;63.77
80321;BME280;69633;47.066;15.450;2023-04-30T07:14:38;97799.66;;;16.08;63.73
80321;BME280;69633;47.066;15.450;2023-04-30T07:17:03;97801.19;;;16.09;63.19
80321;BME280;69633;47.066;15.450;2023-04-30T07:19:29;97783.97;;;16.32;62.76
80321;BME280;69633;47.066;15.450;2023-04-30T07:21:55;97791.16;;;16.51;62.42
80321;BME280;69633;47.066;15.450;2023-04-30T07:24:20;97794.56;;;16.74;61.91
80321;BME280;69633;47.066;15.450;2023-04-30T07:26:45;97792.03;;;17.15;60.50
80321;BME280;69633;47.066;15.450;2023-04-30T07:29:11;97791.84;;;17.30;59.58
80321;BME280;69633;47.066;15.450;2023-04-30T07:31:36;97796.44;;;17.63;58.36
80321;BME280;69633;47.066;15.450;2023-04-30T07:34:02;97796.25;;;17.46;58.62
80321;BME280;69633;47.066;15.450;2023-04-30T07:36:27;97805.53;;;17.22;59.02
80321;BME280;69633;47.066;15.450;2023-04-30T07:38:53;97802.53;;;17.27;58.68
80321;BME280;69633;47.066;15.450;2023-04-30T07:41:18;97806.19;;;17.12;59.34
80321;BME280;69633;47.066;15.450;2023-04-30T07:43:44;97809.47;;;16.98;60.49
80321;BME280;69633;47.066;15.450;2023-04-30T07:46:10;97809.03;;;16.96;60.36
80321;BME280;69633;47.066;15.450;2023-04-30T07:48:35;97803.63;;;17.22;60.00
80321;BME280;69633;47.066;15.450;2023-04-30T07:51:02;97807.53;;;17.28;59.08
80321;BME280;69633;47.066;15.450;2023-04-30T07:53:29;97809.38;;;16.95;60.48
80321;BME280;69633;47.066;15.450;2023-04-30T07:55:54;97812.38;;;17.16;60.02
80321;BME280;69633;47.066;15.450;2023-04-30T07:58:19;97820.75;;;17.44;58.65
80321;BME280;69633;47.066;15.450;2023-04-30T08:00:45;97814.44;;;17.00;59.83
80321;BME280;69633;47.066;15.450;2023-04-30T08:03:10;97811.97;;;16.87;60.63
80321;BME280;69633;47.066;15.450;2023-04-30T08:05:36;97812.72;;;17.14;60.04
80321;BME280;69633;47.066;15.450;2023-04-30T08:08:02;97824.88;;;17.05;59.52
80321;BME280;69633;47.066;15.450;2023-04-30T08:10:27;97815.78;;;17.13;59.35
80321;BME280;69633;47.066;15.450;2023-04-30T08:12:53;97817.31;;;17.14;59.44
80321;BME280;69633;47.066;15.450;2023-04-30T08:15:18;97811.25;;;17.17;59.12
80321;BME280;69633;47.066;15.450;2023-04-30T08:17:50;97820.44;;;17.49;58.25
80321;BME280;69633;47.066;15.450;2023-04-30T08:20:15;97824.78;;;17.57;58.14
80321;BME280;69633;47.066;15.450;2023-04-30T08:22:41;97821.31;;;17.94;57.36
80321;BME280;69633;47.066;15.450;2023-04-30T08:25:10;97829.56;;;18.15;56.70
80321;BME280;69633;47.066;15.450;2023-04-30T08:27:36;97824.81;;;18.45;55.75
80321;BME280;69633;47.066;15.450;2023-04-30T08:30:02;97820.63;;;18.44;55.90
80321;BME280;69633;47.066;15.450;2023-04-30T08:32:27;97830.09;;;18.31;56.49
80321;BME280;69633;47.066;15.450;2023-04-30T08:34:53;97818.56;;;18.74;55.16
80321;BME280;69633;47.066;15.450;2023-04-30T08:37:19;97827.59;;;18.52;55.20
80321;BME280;69633;47.066;15.450;2023-04-30T08:39:44;97826.03;;;18.07;56.54
80321;BME280;69633;47.066;15.450;2023-04-30T08:42:13;97828.22;;;17.95;57.07
80321;BME280;69633;47.066;15.450;2023-04-30T08:44:38;97825.97;;;17.63;57.66
80321;BME280;69633;47.066;15.450;2023-04-30T08:47:09;97827.84;;;17.59;57.71
80321;BME280;69633;47.066;15.450;2023-04-30T08:49:37;97834.28;;;17.84;56.59
80321;BME280;69633;47.066;15.450;2023-04-30T08:52:03;97830.56;;;18.00;55.89
80321;BME280;69633;47.066;15.450;2023-04-30T08:54:30;97838.41;;;18.19;55.26
80321;BME280;69633;47.066;15.450;2023-04-30T08:56:58;97831.66;;;18.35;55.23
80321;BME280;69633;47.066;15.450;2023-04-30T08:59:24;97830.22;;;18.49;55.12
80321;BME280;69633;47.066;15.450;2023-04-30T09:01:49;97830.59;;;18.44;55.40
80321;BME280;69633;47.066;15.450;2023-04-30T09:04:15;97833.94;;;18.33;56.18
80321;BME280;69633;47.066;15.450;2023-04-30T09:06:41;97828.91;;;18.72;54.83
80321;BME280;69633;47.066;15.450;2023-04-30T09:09:14;97827.94;;;19.09;53.86
80321;BME280;69633;47.066;15.450;2023-04-30T09:11:40;97824.44;;;18.98;54.06
80321;BME280;69633;47.066;15.450;2023-04-30T09:14:06;97825.44;;;18.75;54.89
80321;BME280;69633;47.066;15.450;2023-04-30T09:19:27;97825.53;;;18.90;54.54
80321;BME280;69633;47.066;15.450;2023-04-30T09:21:53;97822.88;;;18.93;54.64
80321;BME280;69633;47.066;15.450;2023-04-30T09:24:19;97827.38;;;18.78;55.05
80321;BME280;69633;47.066;15.450;2023-04-30T09:26:45;97835.53;;;18.38;56.31
80321;BME280;69633;47.066;15.450;2023-04-30T09:29:13;97834.72;;;18.34;56.06
80321;BME280;69633;47.066;15.450;2023-04-30T09:31:43;97837.88;;;18.43;55.68
80321;BME280;69633;47.066;15.450;2023-04-30T09:34:09;97820.41;;;18.67;54.70
80321;BME280;69633;47.066;15.450;2023-04-30T09:36:35;97823.81;;;18.60;54.59
80321;BME280;69633;47.066;15.450;2023-04-30T09:39:10;97818.03;;;18.58;54.81
80321;BME280;69633;47.066;15.450;2023-04-30T09:41:38;97819.78;;;18.91;53.71
80321;BME280;69633;47.066;15.450;2023-04-30T09:44:03;97817.09;;;18.88;53.90
80321;BME280;69633;47.066;15.450;2023-04-30T09:46:30;97809.63;;;18.63;54.62
80321;BME280;69633;47.066;15.450;2023-04-30T09:49:00;97818.38;;;18.53;54.40
80321;BME280;69633;47.066;15.450;2023-04-30T09:51:27;97819.41;;;18.38;53.74
80321;BME280;69633;47.066;15.450;2023-04-30T09:53:53;97825.50;;;18.31;54.24
80321;BME280;69633;47.066;15.450;2023-04-30T09:56:20;97819.97;;;18.14;54.77
80321;BME280;69633;47.066;15.450;2023-04-30T09:58:55;97823.50;;;18.21;55.65
80321;BME280;69633;47.066;15.450;2023-04-30T10:01:25;97819.38;;;18.34;54.27
80321;BME280;69633;47.066;15.450;2023-04-30T10:03:51;97815.41;;;18.18;52.24
80321;BME280;69633;47.066;15.450;2023-04-30T10:06:17;97809.66;;;18.23;51.63
80321;BME280;69633;47.066;15.450;2023-04-30T10:08:51;97808.56;;;18.27;53.07
80321;BME280;69633;47.066;15.450;2023-04-30T10:11:19;97806.59;;;18.72;52.99
80321;BME280;69633;47.066;15.450;2023-04-30T10:14:00;97810.56;;;18.89;52.42
80321;BME280;69633;47.066;15.450;2023-04-30T10:16:41;97801.38;;;18.93;51.98
80321;BME280;69633;47.066;15.450;2023-04-30T10:19:18;97791.00;;;18.99;51.27
80321;BME280;69633;47.066;15.450;2023-04-30T10:21:46;97797.03;;;19.61;49.54
80321;BME280;69633;47.066;15.450;2023-04-30T10:24:15;97794.69;;;19.45;49.85
80321;BME280;69633;47.066;15.450;2023-04-30T10:26:44;97791.34;;;18.94;50.21
80321;BME280;69633;47.066;15.450;2023-04-30T10:29:12;97797.25;;;19.24;49.96
80321;BME280;69633;47.066;15.450;2023-04-30T10:31:39;97792.63;;;19.21;49.50
80321;BME280;69633;47.066;15.450;2023-04-30T10:36:45;97781.19;;;19.38;48.38
80321;BME280;69633;47.066;15.450;2023-04-30T10:39:14;97780.00;;;19.32;48.30
80321;BME280;69633;47.066;15.450;2023-04-30T10:41:44;97778.59;;;19.66;47.66
80321;BME280;69633;47.066;15.450;2023-04-30T10:44:11;97781.72;;;20.07;46.43
80321;BME280;69633;47.066;15.450;2023-04-30T10:46:37;97777.88;;;19.98;44.98
80321;BME280;69633;47.066;15.450;2023-04-30T10:49:03;97772.75;;;19.47;46.59
80321;BME280;69633;47.066;15.450;2023-04-30T10:51:47;97766.03;;;19.02;46.26
80321;BME280;69633;47.066;15.450;2023-04-30T10:54:25;97759.13;;;19.04;46.16
80321;BME280;69633;47.066;15.450;2023-04-30T10:56:52;97761.50;;;19.20;46.48
80321;BME280;69633;47.066;15.450;2023-04-30T10:59:21;97763.91;;;19.46;45.65
80321;BME280;69633;47.066;15.450;2023-04-30T11:02:00;97760.75;;;19.23;45.47
80321;BME280;69633;47.066;15.450;2023-04-30T11:04:26;97761.41;;;19.02;45.50
80321;BME280;69633;47.066;15.450;2023-04-30T11:09:17;97766.72;;;18.81;46.02
80321;BME280;69633;47.066;15.450;2023-04-30T11:11:45;97761.38;;;18.92;46.21
80321;BME280;69633;47.066;15.450;2023-04-30T11:14:19;97762.16;;;18.96;46.09
80321;BME280;69633;47.066;15.450;2023-04-30T11:16:48;97759.84;;;18.94;45.85
80321;BME280;69633;47.066;15.450;2023-04-30T11:19:15;97767.59;;;19.06;45.81
80321;BME280;69633;47.066;15.450;2023-04-30T11:21:41;97766.47;;;19.14;45.61
80321;BME280;69633;47.066;15.450;2023-04-30T11:24:06;97766.47;;;19.14;45.24
80321;BME280;69633;47.066;15.450;2023-04-30T11:27:02;97767.28;;;19.25;45.32
80321;BME280;69633;47.066;15.450;2023-04-30T11:29:28;97757.69;;;19.35;45.70
80321;BME280;69633;47.066;15.450;2023-04-30T11:31:53;97767.06;;;19.76;44.41
80321;BME280;69633;47.066;15.450;2023-04-30T11:34:19;97763.63;;;19.83;44.53
80321;BME280;69633;47.066;15.450;2023-04-30T11:36:45;97765.53;;;20.11;44.03
80321;BME280;69633;47.066;15.450;2023-04-30T11:39:12;97760.16;;;20.18;43.72
80321;BME280;69633;47.066;15.450;2023-04-30T11:41:42;97758.59;;;19.89;43.97
80321;BME280;69633;47.066;15.450;2023-04-30T11:44:34;97756.25;;;19.66;43.68
80321;BME280;69633;47.066;15.450;2023-04-30T11:47:00;97752.41;;;19.56;43.81
80321;BME280;69633;47.066;15.450;2023-04-30T11:49:26;97745.50;;;19.66;43.19
80321;BME280;69633;47.066;15.450;2023-04-30T11:51:51;97743.97;;;19.75;42.87
80321;BME280;69633;47.066;15.450;2023-04-30T11:54:17;97738.59;;;20.29;42.09
80321;BME280;69633;47.066;15.450;2023-04-30T11:56:47;97738.91;;;20.80;41.04
80321;BME280;69633;47.066;15.450;2023-04-30T11:59:14;97735.81;;;20.74;39.97
80321;BME280;69633;47.066;15.450;2023-04-30T12:01:41;97736.06;;;21.19;39.39
80321;BME280;69633;47.066;15.450;2023-04-30T12:04:07;97729.19;;;20.97;39.44
80321;BME280;69633;47.066;15.450;2023-04-30T12:06:35;97726.16;;;20.88;39.35
80321;BME280;69633;47.066;15.450;2023-04-30T12:09:02;97728.53;;;20.68;39.92
80321;BME280;69633;47.066;15.450;2023-04-30T12:11:31;97725.72;;;20.96;39.75
80321;BME280;69633;47.066;15.450;2023-04-30T12:14:00;97717.44;;;21.39;38.50
80321;BME280;69633;47.066;15.450;2023-04-30T12:16:41;97722.94;;;21.21;38.94
80321;BME280;69633;47.066;15.450;2023-04-30T12:19:08;97724.09;;;21.20;39.04
80321;BME280;69633;47.066;15.450;2023-04-30T12:21:34;97719.38;;;21.38;38.54
80321;BME280;69633;47.066;15.450;2023-04-30T12:24:00;97716.06;;;21.02;38.84
80321;BME280;69633;47.066;15.450;2023-04-30T12:26:35;97712.97;;;21.00;38.81
80321;BME280;69633;47.066;15.450;2023-04-30T12:29:04;97719.94;;;20.94;39.01
80321;BME280;69633;47.066;15.450;2023-04-30T12:31:31;97720.06;;;20.55;39.80
80321;BME280;69633;47.066;15.450;2023-04-30T12:33:58;97715.13;;;20.01;40.73
80321;BME280;69633;47.066;15.450;2023-04-30T12:36:29;97718.97;;;19.93;40.76
80321;BME280;69633;47.066;15.450;2023-04-30T12:39:05;97713.94;;;19.66;40.27
80321;BME280;69633;47.066;15.450;2023-04-30T12:41:35;97723.47;;;19.32;40.70
80321;BME280;69633;47.066;15.450;2023-04-30T12:46:46;97719.31;;;19.49;40.71
80321;BME280;69633;47.066;15.450;2023-04-30T12:49:26;97717.31;;;19.39;40.39
80321;BME280;69633;47.066;15.450;2023-04-30T12:52:03;97705.00;;;19.27;40.45
80321;BME280;69633;47.066;15.450;2023-04-30T12:54:32;97710.47;;;19.45;40.31
80321;BME280;69633;47.066;15.450;2023-04-30T12:59:24;97711.63;;;19.54;40.15
80321;BME280;69633;47.066;15.450;2023-04-30T13:01:49;97714.72;;;19.70;39.57
80321;BME280;69633;47.066;15.450;2023-04-30T13:04:15;97700.88;;;20.00;39.29
80321;BME280;69633;47.066;15.450;2023-04-30T13:06:41;97702.38;;;20.26;39.63
80321;BME280;69633;47.066;15.450;2023-04-30T13:09:06;97699.31;;;20.13;38.79
80321;BME280;69633;47.066;15.450;2023-04-30T13:11:32;97697.78;;;19.91;38.81
80321;BME280;69633;47.066;15.450;2023-04-30T13:13:58;97705.47;;;20.00;38.84